Time;durP1;ratioP1;P1;durP2;ratioP2;P2;SDS_P1;SDS_P2;PMS_P1;PMS_P2;Temp;Humidity;BMP_temperature;BMP_pressure;BME280_temperature;BME280_humidity;BME280_pressure;Samples;Min_cycle;Max_cycle;Signal;HPM_P1;HPM_P2
2022/12/08 00:00:39;;;;;;;;;;;;;;;18.70;45.11;100713.13;5146428;27;19934;-45
2022/12/08 00:03:05;;;;;;;;;;;;;;;18.70;45.06;100715.91;5145890;27;19923;-45
2022/12/08 00:11:01;;;;;;;;;;;;;;;18.69;44.84;100713.38;5130946;27;19923;-44
2022/12/08 00:13:27;;;;;;;;;;;;;;;18.70;44.92;100704.03;5147386;27;19930;-45
2022/12/08 00:15:56;;;;;;;;;;;;;;;18.70;45.05;100701.28;5145220;27;20324;-46
2022/12/08 00:18:21;;;;;;;;;;;;;;;18.69;44.83;100699.59;5146663;27;20022;-45
2022/12/08 00:20:53;;;;;;;;;;;;;;;18.69;44.84;100697.69;5146245;27;19931;-43
2022/12/08 00:23:18;;;;;;;;;;;;;;;18.69;44.87;100694.06;5126479;27;19979;-45
2022/12/08 00:25:44;;;;;;;;;;;;;;;18.69;45.06;100677.50;5144351;27;19933;-47
2022/12/08 00:28:09;;;;;;;;;;;;;;;18.69;45.10;100680.28;5146924;27;20267;-44
2022/12/08 00:30:36;;;;;;;;;;;;;;;18.69;44.78;100683.03;5149638;27;19987;-43
2022/12/08 00:33:02;;;;;;;;;;;;;;;18.69;45.03;100675.59;5148888;27;19959;-45
2022/12/08 00:35:27;;;;;;;;;;;;;;;18.69;45.04;100683.03;5148446;27;19929;-43
2022/12/08 00:37:53;;;;;;;;;;;;;;;18.69;44.98;100674.75;5149421;27;20371;-44
2022/12/08 00:40:26;;;;;;;;;;;;;;;18.69;45.05;100672.84;5149849;27;19927;-45
2022/12/08 00:42:51;;;;;;;;;;;;;;;18.68;45.10;100673.09;5130070;27;19966;-44
2022/12/08 00:45:17;;;;;;;;;;;;;;;18.69;44.96;100661.81;5147011;27;20320;-43
2022/12/08 00:47:42;;;;;;;;;;;;;;;18.68;45.03;100660.13;5129524;27;19930;-45
2022/12/08 00:50:08;;;;;;;;;;;;;;;18.68;45.05;100653.81;5150443;27;19938;-43
2022/12/08 00:52:34;;;;;;;;;;;;;;;18.68;45.05;100649.09;5149481;27;19958;-46
2022/12/08 00:54:59;;;;;;;;;;;;;;;18.68;45.03;100648.28;5146603;27;19934;-44
2022/12/08 00:57:25;;;;;;;;;;;;;;;18.68;44.94;100654.63;5147673;27;19975;-43
2022/12/08 00:59:50;;;;;;;;;;;;;;;18.68;45.07;100651.03;5149298;27;19958;-44
2022/12/08 01:02:16;;;;;;;;;;;;;;;18.68;45.06;100651.88;5149378;27;19931;-46
2022/12/08 01:04:41;;;;;;;;;;;;;;;18.67;45.02;100652.97;5147644;27;19923;-43
2022/12/08 01:07:07;;;;;;;;;;;;;;;18.67;44.97;100644.72;5148015;27;19934;-43
2022/12/08 01:09:32;;;;;;;;;;;;;;;18.68;44.84;100648.28;5129956;27;20367;-44
2022/12/08 01:11:58;;;;;;;;;;;;;;;18.69;44.75;100649.94;5149000;27;19930;-43
2022/12/08 01:14:24;;;;;;;;;;;;;;;18.68;44.78;100646.34;5148619;27;19923;-44
2022/12/08 01:16:49;;;;;;;;;;;;;;;18.67;45.06;100647.47;5147737;27;19950;-43
2022/12/08 01:19:15;;;;;;;;;;;;;;;18.67;45.06;100647.47;5149015;27;20053;-43
2022/12/08 01:21:41;;;;;;;;;;;;;;;18.67;44.90;100650.22;5130971;27;19927;-43
2022/12/08 01:24:08;;;;;;;;;;;;;;;18.67;45.02;100652.97;5148482;27;19930;-44
2022/12/08 01:26:33;;;;;;;;;;;;;;;18.67;44.87;100655.75;5148702;27;19974;-43
2022/12/08 01:28:59;;;;;;;;;;;;;;;18.67;44.73;100652.16;5148278;27;19931;-46
2022/12/08 01:31:24;;;;;;;;;;;;;;;18.66;44.98;100645.81;5149375;27;19976;-45
2022/12/08 01:33:50;;;;;;;;;;;;;;;18.68;44.67;100651.88;5128986;27;19931;-45
2022/12/08 01:36:18;;;;;;;;;;;;;;;18.66;45.05;100656.84;5148986;27;19923;-46
2022/12/08 01:38:44;;;;;;;;;;;;;;;18.67;45.03;100644.72;5148480;27;20399;-44
2022/12/08 01:41:12;;;;;;;;;;;;;;;18.66;44.79;100651.34;5149368;27;19942;-45
2022/12/08 01:43:57;;;;;;;;;;;;;;;18.66;45.03;100643.06;5126197;27;19973;-43
2022/12/08 01:46:23;;;;;;;;;;;;;;;18.67;44.80;100649.41;5129002;27;19931;-44
2022/12/08 01:48:50;;;;;;;;;;;;;;;18.67;44.88;100641.13;5148685;27;20302;-44
2022/12/08 01:51:16;;;;;;;;;;;;;;;18.66;44.98;100645.81;5129537;27;20394;-44
2022/12/08 01:53:41;;;;;;;;;;;;;;;18.66;44.89;100645.81;5147058;27;19927;-45
2022/12/08 01:56:08;;;;;;;;;;;;;;;18.65;44.65;100638.66;5149159;27;19927;-44
2022/12/08 01:58:35;;;;;;;;;;;;;;;18.65;44.82;100641.41;5148373;27;19964;-45
2022/12/08 02:01:00;;;;;;;;;;;;;;;18.65;45.00;100635.06;5147185;27;19981;-44
2022/12/08 02:03:27;;;;;;;;;;;;;;;18.66;44.71;100633.97;5148313;27;19927;-44
2022/12/08 02:05:53;;;;;;;;;;;;;;;18.66;44.88;100631.22;5128165;27;20406;-43
2022/12/08 02:08:18;;;;;;;;;;;;;;;18.65;44.87;100626.78;5149414;27;19923;-46
2022/12/08 02:10:45;;;;;;;;;;;;;;;18.65;44.89;100627.63;5130320;27;20344;-44
2022/12/08 02:13:13;;;;;;;;;;;;;;;18.66;44.73;100631.22;5128659;27;20018;-44
2022/12/08 02:15:44;;;;;;;;;;;;;;;18.65;44.63;100624.88;5128539;27;19962;-44
2022/12/08 02:18:29;;;;;;;;;;;;;;;18.65;44.75;100632.28;5149076;27;19978;-44
2022/12/08 02:20:58;;;;;;;;;;;;;;;18.65;44.83;100624.03;5148278;27;20386;-43
2022/12/08 02:23:27;;;;;;;;;;;;;;;18.64;44.97;100620.44;5148047;27;20426;-44
2022/12/08 02:26:03;;;;;;;;;;;;;;;18.66;44.81;100621.00;5147103;27;20402;-44
2022/12/08 02:28:48;;;;;;;;;;;;;;;18.64;44.62;100609.41;5148502;27;20006;-44
2022/12/08 02:31:20;;;;;;;;;;;;;;;18.64;44.84;100606.66;5132427;27;20010;-43
2022/12/08 02:34:05;;;;;;;;;;;;;;;18.65;44.70;100601.97;5127324;27;20010;-44
2022/12/08 02:36:41;;;;;;;;;;;;;;;18.64;44.89;100598.38;5144421;27;19966;-43
2022/12/08 02:39:27;;;;;;;;;;;;;;;18.64;44.87;100595.63;5147695;27;20059;-45
2022/12/08 02:41:55;;;;;;;;;;;;;;;18.65;44.72;100585.41;5132850;27;19981;-43
2022/12/08 02:44:40;;;;;;;;;;;;;;;18.64;44.66;100584.59;5145561;27;20404;-44
2022/12/08 02:47:08;;;;;;;;;;;;;;;18.65;44.81;100588.16;5131270;27;19967;-43
2022/12/08 02:49:33;;;;;;;;;;;;;;;18.64;44.71;100586.53;5130013;27;19972;-43
2022/12/08 02:52:16;;;;;;;;;;;;;;;18.64;44.81;100587.34;5147949;27;20014;-44
2022/12/08 02:54:43;;;;;;;;;;;;;;;18.65;44.64;100579.88;5145634;27;19923;-44
2022/12/08 02:57:14;;;;;;;;;;;;;;;18.64;44.69;100575.50;5147915;27;19978;-43
2022/12/08 02:59:47;;;;;;;;;;;;;;;18.64;44.66;100572.72;5129526;27;20422;-45
2022/12/08 03:02:18;;;;;;;;;;;;;;;18.64;44.81;100569.97;5147581;27;19962;-47
2022/12/08 03:04:45;;;;;;;;;;;;;;;18.64;44.72;100569.97;5146606;27;20383;-43
2022/12/08 03:07:21;;;;;;;;;;;;;;;18.63;44.66;100568.34;5147755;27;20124;-44
2022/12/08 03:10:04;;;;;;;;;;;;;;;18.63;44.76;100558.13;5147755;27;19967;-43
2022/12/08 03:12:32;;;;;;;;;;;;;;;18.63;44.66;100557.31;5148609;27;19927;-43
2022/12/08 03:14:59;;;;;;;;;;;;;;;18.63;44.79;100552.59;5145672;27;19980;-45
2022/12/08 03:17:25;;;;;;;;;;;;;;;18.62;44.86;100552.91;5129138;27;19974;-45
2022/12/08 03:19:50;;;;;;;;;;;;;;;18.62;44.66;100555.66;5147399;27;19931;-44
2022/12/08 03:22:17;;;;;;;;;;;;;;;18.63;44.84;100547.09;5148461;27;19931;-47
2022/12/08 03:24:43;;;;;;;;;;;;;;;18.63;44.85;100543.50;5146192;27;19950;-43
2022/12/08 03:27:11;;;;;;;;;;;;;;;18.62;44.66;100542.69;5128903;27;20442;-45
2022/12/08 03:29:37;;;;;;;;;;;;;;;18.63;44.91;100527.78;5128890;27;19927;-43
2022/12/08 03:32:07;;;;;;;;;;;;;;;18.61;44.54;100535.53;5128409;27;20277;-44
2022/12/08 03:34:32;;;;;;;;;;;;;;;18.61;44.89;100535.53;5146493;27;20394;-43
2022/12/08 03:36:59;;;;;;;;;;;;;;;18.63;44.68;100535.25;5146797;27;19938;-44
2022/12/08 03:39:24;;;;;;;;;;;;;;;18.63;44.70;100526.97;5147978;27;19947;-43
2022/12/08 03:41:50;;;;;;;;;;;;;;;18.63;44.64;100527.78;5147833;27;19934;-44
2022/12/08 03:44:15;;;;;;;;;;;;;;;18.62;44.79;100520.63;5146642;27;20166;-44
2022/12/08 03:46:41;;;;;;;;;;;;;;;18.61;44.86;100524.50;5127702;27;19931;-44
2022/12/08 03:49:06;;;;;;;;;;;;;;;18.62;44.57;100522.56;5147437;27;19927;-42
2022/12/08 03:51:32;;;;;;;;;;;;;;;18.62;44.93;100517.06;5146811;27;19930;-44
2022/12/08 03:53:57;;;;;;;;;;;;;;;18.62;44.74;100514.28;5145253;27;19938;-44
2022/12/08 03:56:24;;;;;;;;;;;;;;;18.62;44.68;100504.06;5147468;27;20100;-44
2022/12/08 03:58:50;;;;;;;;;;;;;;;18.62;44.83;100515.09;5129101;27;20177;-45
2022/12/08 04:01:15;;;;;;;;;;;;;;;18.62;44.81;100511.53;5128418;27;19934;-43
2022/12/08 04:03:41;;;;;;;;;;;;;;;18.62;44.77;100495.81;5143172;27;20542;-43
2022/12/08 04:06:06;;;;;;;;;;;;;;;18.62;44.72;100503.25;5126107;27;19976;-47
2022/12/08 04:08:32;;;;;;;;;;;;;;;18.63;44.88;100507.66;5150511;27;19931;-44
2022/12/08 04:10:57;;;;;;;;;;;;;;;18.62;44.67;100495.81;5150905;27;19930;-46
2022/12/08 04:13:23;;;;;;;;;;;;;;;18.61;44.81;100487.81;5150488;27;19930;-43
2022/12/08 04:15:49;;;;;;;;;;;;;;;18.61;44.84;100485.91;5149320;27;19930;-44
2022/12/08 04:18:14;;;;;;;;;;;;;;;18.62;44.66;100492.22;5151036;27;20394;-44
2022/12/08 04:20:40;;;;;;;;;;;;;;;18.61;44.65;100488.66;5150726;27;19992;-44
2022/12/08 04:23:06;;;;;;;;;;;;;;;18.62;44.77;100493.03;5149459;27;21098;-45
2022/12/08 04:25:32;;;;;;;;;;;;;;;18.61;44.58;100488.66;5148918;27;19923;-46
2022/12/08 04:27:57;;;;;;;;;;;;;;;18.62;44.84;100483.94;5131075;27;20286;-44
2022/12/08 04:30:23;;;;;;;;;;;;;;;18.61;44.51;100480.38;5149737;27;19923;-46
2022/12/08 04:32:48;;;;;;;;;;;;;;;18.61;44.77;100474.00;5150113;27;19950;-46
2022/12/08 04:35:14;;;;;;;;;;;;;;;18.62;44.82;100481.19;5148603;27;21552;-47
2022/12/08 04:37:39;;;;;;;;;;;;;;;18.60;44.60;100470.44;5150262;27;19927;-44
2022/12/08 04:40:05;;;;;;;;;;;;;;;18.61;44.77;100474.00;5150182;27;19941;-44
2022/12/08 04:42:31;;;;;;;;;;;;;;;18.59;44.68;100463.28;5150019;27;20114;-43
2022/12/08 04:44:57;;;;;;;;;;;;;;;18.60;44.83;100473.19;5146313;27;19930;-43
2022/12/08 04:47:22;;;;;;;;;;;;;;;18.61;44.64;100462.97;5149742;27;19951;-44
2022/12/08 04:49:48;;;;;;;;;;;;;;;18.61;44.54;100469.34;5149834;27;20011;-43
2022/12/08 04:52:13;;;;;;;;;;;;;;;18.61;44.55;100469.34;5149720;27;19948;-43
2022/12/08 04:54:39;;;;;;;;;;;;;;;18.61;44.65;100465.72;5148476;27;19923;-44
2022/12/08 04:57:05;;;;;;;;;;;;;;;18.61;44.71;100463.81;5149194;27;19923;-44
2022/12/08 04:59:30;;;;;;;;;;;;;;;18.60;44.82;100464.09;5150929;27;20307;-43
2022/12/08 05:01:56;;;;;;;;;;;;;;;18.61;44.67;100457.47;5150529;27;19923;-46
2022/12/08 05:04:22;;;;;;;;;;;;;;;18.61;44.65;100462.97;5149209;27;19934;-43
2022/12/08 05:06:47;;;;;;;;;;;;;;;18.60;44.75;100464.09;5149341;27;19996;-43
2022/12/08 05:09:13;;;;;;;;;;;;;;;18.61;44.76;100454.72;5150479;27;20325;-45
2022/12/08 05:11:40;;;;;;;;;;;;;;;18.60;44.67;100458.56;5150099;27;20286;-45
2022/12/08 05:14:14;;;;;;;;;;;;;;;18.60;44.57;100464.09;5148913;27;19927;-45
2022/12/08 05:16:40;;;;;;;;;;;;;;;18.60;44.79;100455.81;5149080;27;19930;-43
2022/12/08 05:19:05;;;;;;;;;;;;;;;18.59;44.85;100457.75;5150169;27;19930;-45
2022/12/08 05:21:31;;;;;;;;;;;;;;;18.60;44.54;100464.91;5149667;27;20027;-45
2022/12/08 05:23:56;;;;;;;;;;;;;;;18.60;44.66;100458.56;5148054;27;19946;-45
2022/12/08 05:26:22;;;;;;;;;;;;;;;18.60;44.60;100461.34;5148359;27;19930;-45
2022/12/08 05:28:47;;;;;;;;;;;;;;;18.60;44.56;100464.09;5149474;27;19930;-44
2022/12/08 05:31:13;;;;;;;;;;;;;;;18.60;44.63;100455.81;5148689;27;19927;-43
2022/12/08 05:33:39;;;;;;;;;;;;;;;18.58;44.76;100455.31;5130174;27;19923;-44
2022/12/08 05:36:05;;;;;;;;;;;;;;;18.59;44.71;100455.00;5146374;27;19931;-43
2022/12/08 05:38:30;;;;;;;;;;;;;;;18.59;44.58;100455.00;5130548;27;19966;-44
2022/12/08 05:40:56;;;;;;;;;;;;;;;18.58;44.60;100453.38;5148852;27;20150;-44
2022/12/08 05:43:21;;;;;;;;;;;;;;;18.59;44.71;100449.50;5148948;27;19931;-46
2022/12/08 05:45:47;;;;;;;;;;;;;;;18.60;44.63;100459.41;5149533;27;19923;-43
2022/12/08 05:48:13;;;;;;;;;;;;;;;18.58;44.74;100441.50;5148507;27;19923;-45
2022/12/08 05:50:38;;;;;;;;;;;;;;;18.60;44.52;100439.28;5149552;27;19924;-44
2022/12/08 05:53:04;;;;;;;;;;;;;;;18.58;44.80;100436.00;5148130;27;19923;-44
2022/12/08 05:55:29;;;;;;;;;;;;;;;18.58;44.77;100434.06;5147694;27;19950;-45
2022/12/08 05:57:55;;;;;;;;;;;;;;;18.58;44.59;100427.72;5148941;27;19988;-43
2022/12/08 06:00:21;;;;;;;;;;;;;;;18.57;44.83;100435.19;5148356;27;19942;-45
2022/12/08 06:02:46;;;;;;;;;;;;;;;18.57;44.84;100435.19;5143738;27;19931;-44
2022/12/08 06:05:12;;;;;;;;;;;;;;;18.57;44.49;100435.19;5145710;27;19931;-44
2022/12/08 06:07:38;;;;;;;;;;;;;;;18.59;44.79;100443.97;5148362;27;19930;-45
2022/12/08 06:10:04;;;;;;;;;;;;;;;18.58;44.83;100428.53;5147466;27;20326;-43
2022/12/08 06:12:30;;;;;;;;;;;;;;;18.57;44.74;100426.91;5146743;27;19924;-43
2022/12/08 06:14:55;;;;;;;;;;;;;;;18.57;44.70;100429.66;5147124;27;19930;-43
2022/12/08 06:17:21;;;;;;;;;;;;;;;18.59;44.79;100430.19;5147507;27;19927;-44
2022/12/08 06:19:46;;;;;;;;;;;;;;;18.58;44.54;100427.72;5149433;27;19927;-45
2022/12/08 06:22:12;;;;;;;;;;;;;;;18.58;44.50;100428.53;5130248;27;19923;-43
2022/12/08 06:24:37;;;;;;;;;;;;;;;18.59;44.79;100424.66;5146198;27;19930;-44
2022/12/08 06:27:03;;;;;;;;;;;;;;;18.61;44.60;100432.63;5146340;27;20431;-45
2022/12/08 06:29:29;;;;;;;;;;;;;;;18.62;44.65;100429.63;5148444;27;19930;-43
2022/12/08 06:31:54;;;;;;;;;;;;;;;18.63;44.50;100424.91;5147435;27;19923;-45
2022/12/08 06:34:20;;;;;;;;;;;;;;;18.62;44.79;100431.56;5147015;27;19923;-43
2022/12/08 06:36:45;;;;;;;;;;;;;;;18.61;44.91;100432.63;5147103;27;19984;-44
2022/12/08 06:39:11;;;;;;;;;;;;;;;18.59;44.75;100427.44;5148530;27;20433;-43
2022/12/08 06:42:42;;;;;;;;;;;;;;;18.59;44.83;100430.19;5148677;27;19923;-43
2022/12/08 06:44:22;;;;;;;;;;;;;;;18.60;44.86;100431.00;5130628;27;19962;-44
2022/12/08 06:46:47;;;;;;;;;;;;;;;18.58;44.63;100425.78;5144777;27;19923;-43
2022/12/08 06:49:13;;;;;;;;;;;;;;;18.59;44.87;100432.94;5147212;27;19923;-42
2022/12/08 06:51:39;;;;;;;;;;;;;;;18.63;44.62;100424.91;5147378;27;19923;-44
2022/12/08 06:54:04;;;;;;;;;;;;;;;18.63;44.66;100428.50;5146386;27;19978;-47
2022/12/08 06:56:30;;;;;;;;;;;;;;;18.63;46.29;100431.25;5143284;27;20294;-58
2022/12/08 06:58:55;;;;;;;;;;;;;;;18.67;46.88;100440.59;5144113;27;19923;-43
2022/12/08 07:01:21;;;;;;;;;;;;;;;18.67;46.03;100446.13;5143238;27;19954;-45
2022/12/08 07:03:46;;;;;;;;;;;;;;;18.66;46.24;100443.66;5134156;27;19983;-44
2022/12/08 07:06:13;;;;;;;;;;;;;;;18.66;45.99;100440.91;5111354;27;19931;-44
2022/12/08 07:08:39;;;;;;;;;;;;;;;18.66;45.86;100450.00;5135945;27;20332;-43
2022/12/08 07:11:05;;;;;;;;;;;;;;;18.66;46.11;100446.41;5142282;27;20411;-44
2022/12/08 07:13:30;;;;;;;;;;;;;;;18.70;46.57;100447.50;5141229;27;19970;-54
2022/12/08 07:15:56;;;;;;;;;;;;;;;18.71;46.31;100449.16;5142329;27;19931;-43
2022/12/08 07:18:22;;;;;;;;;;;;;;;18.70;46.35;100451.09;5140390;27;19923;-43
2022/12/08 07:20:47;;;;;;;;;;;;;;;18.70;46.04;100455.78;5141320;27;19931;-43
2022/12/08 07:23:13;;;;;;;;;;;;;;;18.69;46.16;100457.69;5144648;27;19934;-45
2022/12/08 07:25:38;;;;;;;;;;;;;;;18.74;46.30;100454.09;5141482;27;19927;-44
2022/12/08 07:28:08;;;;;;;;;;;;;;;18.78;45.94;100452.38;5147803;27;19930;-44
2022/12/08 07:30:33;;;;;;;;;;;;;;;18.75;46.02;100462.06;5125143;27;19954;-44
2022/12/08 07:32:59;;;;;;;;;;;;;;;18.74;46.12;100459.63;5138050;27;19979;-43
2022/12/08 07:35:25;;;;;;;;;;;;;;;18.73;46.14;100456.00;5141116;27;20299;-44
2022/12/08 07:37:50;;;;;;;;;;;;;;;18.73;46.05;100452.44;5143672;27;19984;-47
2022/12/08 07:40:16;;;;;;;;;;;;;;;18.73;46.03;100455.19;5143559;27;20393;-44
2022/12/08 07:42:41;;;;;;;;;;;;;;;18.72;46.07;100451.63;5138988;27;19976;-47
2022/12/08 07:45:07;;;;;;;;;;;;;;;18.74;46.11;100448.59;5137859;27;19931;-45
2022/12/08 07:47:32;;;;;;;;;;;;;;;18.73;45.93;100447.72;5141437;27;20393;-47
2022/12/08 07:49:58;;;;;;;;;;;;;;;18.75;45.74;100439.19;5139797;27;19931;-48
2022/12/08 07:52:24;;;;;;;;;;;;;;;18.74;45.66;100449.41;5142805;27;19927;-43
2022/12/08 07:54:49;;;;;;;;;;;;;;;18.74;45.94;100441.13;5140721;27;19923;-44
2022/12/08 07:57:15;;;;;;;;;;;;;;;18.73;45.69;100436.69;5138845;27;19923;-44
2022/12/08 07:59:41;;;;;;;;;;;;;;;18.76;45.77;100451.88;5121259;27;20455;-43
2022/12/08 08:02:11;;;;;;;;;;;;;;;18.76;45.77;100451.88;5135761;27;20007;-46
2022/12/08 08:04:50;;;;;;;;;;;;;;;18.77;45.60;100447.97;5130755;27;20398;-44
2022/12/08 08:07:16;;;;;;;;;;;;;;;18.77;45.61;100446.03;5108776;27;19938;-43
2022/12/08 08:09:41;;;;;;;;;;;;;;;18.83;45.73;100446.84;5123042;27;19931;-44
2022/12/08 08:12:07;;;;;;;;;;;;;;;18.81;46.01;100451.81;5130496;27;19927;-44
2022/12/08 08:14:53;;;;;;;;;;;;;;;18.80;45.85;100452.94;5118933;27;20618;-44
2022/12/08 08:17:18;;;;;;;;;;;;;;;18.80;45.82;100455.69;5132115;27;19924;-43
2022/12/08 08:19:44;;;;;;;;;;;;;;;18.81;45.83;100446.28;5135338;27;19939;-45
2022/12/08 08:22:10;;;;;;;;;;;;;;;18.83;46.93;100455.13;5133666;27;20371;-51
2022/12/08 08:24:35;;;;;;;;;;;;;;;18.72;47.57;100451.63;5131482;27;19931;-44
2022/12/08 08:27:08;;;;;;;;;;;;;;;18.80;46.51;100442.72;5136934;27;20367;-43
2022/12/08 08:29:33;;;;;;;;;;;;;;;18.82;46.66;100447.94;5137972;27;19931;-45
2022/12/08 08:31:59;;;;;;;;;;;;;;;18.82;46.61;100452.63;5136936;27;19973;-44
2022/12/08 08:34:25;;;;;;;;;;;;;;;18.85;46.49;100454.81;5132775;27;19931;-44
2022/12/08 08:36:50;;;;;;;;;;;;;;;18.83;46.27;100451.53;5130249;27;19927;-44
2022/12/08 08:39:16;;;;;;;;;;;;;;;18.83;46.33;100449.59;5128975;27;19923;-43
2022/12/08 08:41:41;;;;;;;;;;;;;;;18.74;48.03;100448.59;5130822;27;19932;-59
2022/12/08 08:44:07;;;;;;;;;;;;;;;18.69;48.21;100451.34;5133128;27;19935;-56
2022/12/08 08:46:32;;;;;;;;;;;;;;;18.84;46.65;100448.47;5138030;27;19923;-42
2022/12/08 08:48:58;;;;;;;;;;;;;;;18.87;47.15;100447.91;5115863;27;19927;-41
2022/12/08 08:51:24;;;;;;;;;;;;;;;18.88;47.13;100445.97;5134913;27;20432;-44
2022/12/08 08:53:49;;;;;;;;;;;;;;;18.88;46.98;100443.22;5130535;27;20030;-42
2022/12/08 08:56:18;;;;;;;;;;;;;;;18.86;47.07;100446.25;5134493;27;20286;-44
2022/12/08 08:58:43;;;;;;;;;;;;;;;18.87;46.81;100442.41;5113203;27;20015;-43
2022/12/08 09:01:13;;;;;;;;;;;;;;;18.87;46.96;100447.91;5110019;27;20226;-42
2022/12/08 09:03:39;;;;;;;;;;;;;;;18.89;46.51;100442.09;5117074;27;19928;-43
2022/12/08 09:06:04;;;;;;;;;;;;;;;18.88;46.39;100448.72;5120229;27;19931;-43
2022/12/08 09:08:30;;;;;;;;;;;;;;;18.89;46.42;100450.38;5126357;27;19931;-42
2022/12/08 09:10:56;;;;;;;;;;;;;;;18.90;46.28;100443.72;5126780;27;19960;-42
2022/12/08 09:13:22;;;;;;;;;;;;;;;18.89;46.37;100447.59;5123613;27;19923;-42
2022/12/08 09:15:48;;;;;;;;;;;;;;;18.90;46.40;100452.00;5137726;27;20182;-42
2022/12/08 09:18:13;;;;;;;;;;;;;;;18.90;46.12;100449.25;5136716;27;20386;-44
2022/12/08 09:20:39;;;;;;;;;;;;;;;18.90;45.56;100447.31;5135780;27;19931;-41
2022/12/08 09:23:04;;;;;;;;;;;;;;;18.90;46.26;100452.81;5136748;27;20398;-45
2022/12/08 09:25:30;;;;;;;;;;;;;;;18.90;46.29;100454.75;5139278;27;19942;-45
2022/12/08 09:27:55;;;;;;;;;;;;;;;18.90;45.98;100446.50;5133913;27;19930;-44
2022/12/08 09:30:21;;;;;;;;;;;;;;;18.89;46.01;100445.66;5132109;27;19935;-42
2022/12/08 09:32:47;;;;;;;;;;;;;;;18.89;46.28;100456.72;5121075;27;20018;-41
2022/12/08 09:35:12;;;;;;;;;;;;;;;18.90;46.29;100447.31;5115109;27;19931;-43
2022/12/08 09:37:38;;;;;;;;;;;;;;;18.94;46.14;100444.78;5124016;27;19923;-43
2022/12/08 09:40:05;;;;;;;;;;;;;;;18.94;45.68;100455.84;5125236;27;19932;-41
2022/12/08 09:42:35;;;;;;;;;;;;;;;18.94;45.09;100453.06;5103107;27;21131;-41
2022/12/08 09:45:16;;;;;;;;;;;;;;;18.90;45.16;100443.72;5119492;27;21217;-44
2022/12/08 09:47:42;;;;;;;;;;;;;;;18.94;45.69;100447.56;5110461;27;20050;-44
2022/12/08 09:50:28;;;;;;;;;;;;;;;18.95;45.15;100447.25;5106598;27;20014;-44
2022/12/08 09:53:14;;;;;;;;;;;;;;;18.94;44.39;100448.38;5111398;27;19927;-42
2022/12/08 09:55:42;;;;;;;;;;;;;;;18.94;44.99;100439.28;5117789;27;19931;-42
2022/12/08 09:58:11;;;;;;;;;;;;;;;18.93;44.97;100434.88;5126991;27;20038;-42
2022/12/08 10:00:36;;;;;;;;;;;;;;;18.93;45.17;100438.47;5127939;27;19968;-41
2022/12/08 10:03:02;;;;;;;;;;;;;;;18.95;45.08;100432.63;5121517;27;19987;-42
2022/12/08 10:05:27;;;;;;;;;;;;;;;18.95;45.29;100440.91;5130399;27;19927;-41
2022/12/08 10:08:04;;;;;;;;;;;;;;;18.95;45.46;100435.41;5132876;27;19930;-44
2022/12/08 10:10:37;;;;;;;;;;;;;;;18.94;45.30;100434.56;5128237;27;19969;-42
2022/12/08 10:13:07;;;;;;;;;;;;;;;18.95;45.33;100435.41;5114286;27;19993;-42
2022/12/08 10:15:36;;;;;;;;;;;;;;;18.91;44.78;100432.41;5114954;27;20706;-43
2022/12/08 10:18:03;;;;;;;;;;;;;;;18.96;45.29;100426.03;5136450;27;19966;-43
2022/12/08 10:20:34;;;;;;;;;;;;;;;18.93;45.04;100432.94;5131467;27;20087;-42
2022/12/08 10:23:05;;;;;;;;;;;;;;;18.96;44.82;100429.59;5110516;27;20087;-41
2022/12/08 10:25:33;;;;;;;;;;;;;;;18.96;45.28;100429.59;5127621;27;20026;-43
2022/12/08 10:27:59;;;;;;;;;;;;;;;18.97;45.02;100424.91;5129749;27;20355;-41
2022/12/08 10:30:24;;;;;;;;;;;;;;;18.98;44.87;100424.59;5126805;27;20379;-46
2022/12/08 10:32:50;;;;;;;;;;;;;;;18.98;45.16;100423.78;5129275;27;21135;-44
2022/12/08 10:35:16;;;;;;;;;;;;;;;18.96;44.59;100421.31;5130212;27;20367;-42
2022/12/08 10:37:58;;;;;;;;;;;;;;;18.95;44.49;100411.38;5119969;27;19931;-44
2022/12/08 10:40:25;;;;;;;;;;;;;;;18.98;44.61;100410.81;5099326;27;20018;-42
2022/12/08 10:42:51;;;;;;;;;;;;;;;18.99;44.79;100409.69;5124487;27;19962;-41
2022/12/08 10:45:25;;;;;;;;;;;;;;;18.99;45.11;100412.44;5118480;27;19927;-43
2022/12/08 10:48:10;;;;;;;;;;;;;;;18.99;44.18;100411.63;5126389;27;19972;-41
2022/12/08 10:53:26;;;;;;;;;;;;;;;18.93;44.30;100407.28;5167478;27;20601;-42
2022/12/08 10:56:12;;;;;;;;;;;;;;;18.98;45.02;100396.19;5122721;27;20262;-42
2022/12/08 10:58:40;;;;;;;;;;;;;;;19.00;45.33;100402.25;5148232;27;20463;-42
2022/12/08 11:01:14;;;;;;;;;;;;;;;18.99;45.06;100395.06;5129029;27;21870;-41
2022/12/08 11:03:48;;;;;;;;;;;;;;;18.99;45.25;100395.06;5124952;27;20640;-41
2022/12/08 11:06:16;;;;;;;;;;;;;;;18.99;45.33;100400.59;5114919;27;20025;-44
2022/12/08 11:08:43;;;;;;;;;;;;;;;18.99;45.17;100384.84;5125572;27;20559;-41
2022/12/08 11:11:09;;;;;;;;;;;;;;;19.00;44.95;100382.94;5107264;27;19976;-43
2022/12/08 11:13:37;;;;;;;;;;;;;;;19.00;44.61;100380.19;5110634;27;20389;-44
2022/12/08 11:16:02;;;;;;;;;;;;;;;19.00;44.95;100377.41;5127236;27;19966;-42
2022/12/08 11:18:29;;;;;;;;;;;;;;;19.00;44.71;100377.41;5121639;27;19923;-50
2022/12/08 11:20:55;;;;;;;;;;;;;;;18.99;45.31;100382.09;5100170;27;19962;-46
2022/12/08 11:23:21;;;;;;;;;;;;;;;18.99;45.29;100371.06;5116039;27;20609;-45
2022/12/08 11:25:47;;;;;;;;;;;;;;;18.99;45.29;100368.28;5120487;27;20428;-44
2022/12/08 11:28:12;;;;;;;;;;;;;;;18.99;45.40;100365.53;5115259;27;20060;-47
2022/12/08 11:30:40;;;;;;;;;;;;;;;19.00;44.59;100367.19;5121001;27;19932;-43
2022/12/08 11:33:15;;;;;;;;;;;;;;;19.00;45.06;100369.13;5124888;27;19990;-47
2022/12/08 11:35:41;;;;;;;;;;;;;;;18.99;45.29;100362.78;5119288;27;20450;-44
2022/12/08 11:38:15;;;;;;;;;;;;;;;19.00;45.06;100361.69;5124174;27;20058;-43
2022/12/08 11:40:50;;;;;;;;;;;;;;;19.01;44.52;100363.31;5098489;27;20019;-44
2022/12/08 11:43:36;;;;;;;;;;;;;;;19.01;44.43;100362.50;5103893;27;20026;-44
2022/12/08 11:46:03;;;;;;;;;;;;;;;19.02;44.61;100359.44;5106349;27;20160;-46
2022/12/08 11:48:31;;;;;;;;;;;;;;;19.01;44.66;100355.03;5105910;27;20399;-47
2022/12/08 11:50:59;;;;;;;;;;;;;;;19.01;44.66;100365.25;5094884;27;20417;-43
2022/12/08 11:53:30;;;;;;;;;;;;;;;19.00;44.55;100361.69;5103592;27;20064;-46
2022/12/08 11:55:57;;;;;;;;;;;;;;;19.00;44.47;100358.09;5103172;27;20398;-44
2022/12/08 11:58:24;;;;;;;;;;;;;;;19.00;44.28;100360.88;5124552;27;19974;-44
2022/12/08 12:00:49;;;;;;;;;;;;;;;18.97;43.75;100355.91;5122718;27;20379;-47
2022/12/08 12:03:18;;;;;;;;;;;;;;;18.97;44.05;100355.91;5121507;27;19942;-48
2022/12/08 12:05:50;;;;;;;;;;;;;;;18.96;44.13;100354.28;5107375;28;20018;-44
2022/12/08 12:08:56;;;;;;;;;;;;;;;18.99;44.33;100351.72;5093509;28;20328;-44
2022/12/08 12:12:13;;;;;;;;;;;;;;;18.97;44.07;100347.66;5093630;28;19924;-43
2022/12/08 12:14:42;;;;;;;;;;;;;;;18.99;44.30;100345.41;5085509;28;19963;-47
2022/12/08 12:17:20;;;;;;;;;;;;;;;18.99;44.05;100337.94;5110380;28;19966;-47
2022/12/08 12:19:45;;;;;;;;;;;;;;;18.99;44.12;100340.69;5103914;28;20474;-45
2022/12/08 12:22:16;;;;;;;;;;;;;;;18.99;44.65;100335.19;5112420;27;19930;-44
2022/12/08 12:24:41;;;;;;;;;;;;;;;18.98;44.40;100341.81;5102419;28;19989;-44
2022/12/08 12:27:17;;;;;;;;;;;;;;;18.99;44.13;100331.59;5099832;28;20324;-49
2022/12/08 12:29:45;;;;;;;;;;;;;;;18.95;43.90;100342.41;5099651;28;20563;-45
2022/12/08 12:32:16;;;;;;;;;;;;;;;18.98;44.70;100344.56;5084515;28;19923;-43
2022/12/08 12:34:49;;;;;;;;;;;;;;;18.98;44.13;100332.72;5096430;28;19935;-43
2022/12/08 12:37:16;;;;;;;;;;;;;;;18.99;44.92;100337.13;5099242;28;20025;-44
2022/12/08 12:39:46;;;;;;;;;;;;;;;18.97;44.57;100337.44;5109092;28;20444;-44
2022/12/08 12:42:31;;;;;;;;;;;;;;;18.96;44.83;100335.78;5088758;28;20057;-45
2022/12/08 12:45:09;;;;;;;;;;;;;;;18.97;44.87;100339.38;5092157;27;20009;-44
2022/12/08 12:47:54;;;;;;;;;;;;;;;18.94;45.07;100332.47;5105950;27;20358;-43